Youkamaru — JD3772 — position and weather

sailwx.info

Track history (hours):
 
Tides and Currents Weather Stations Pressure Air Temp Water Temp Dewpoint Dewpoint Depression Visibility Wind Speed Wind Dir Waves Ship Positions

Youkamaru

Last reported at 2018-Jul-22 12:30 UTC. Time now 2018-Jul-22 12:49 UTC.
Position N 35°21' E 139°45'.

Length 72 m; draft 4.8 m.

Type: Cargo ship. MMSI: 431005921.

Date/timePositionNaut miles runAvg speedWind from/ knotsBaromVisibWave heightAir tempDewpointWater temp
2018-Jul-22 12:30N 35°21' E 139°45'510.7
2018-Jul-22 12:00N 35°16' E 139°46'611.3
2018-Jul-22 11:30N 35°10' E 139°46'611.4
2018-Jul-22 11:00N 35°05' E 139°44'611.2
2018-Jul-22 10:30N 35°01' E 139°39'23810.6
2018-Jul-21 12:02N 33°50' E 135°04'210.9
2018-Jul-21 11:52N 33°51' E 135°03'410.0
2018-Jul-21 11:30N 33°55' E 135°02'510.5
2018-Jul-21 11:00N 34°00' E 135°01'510.5
2018-Jul-21 10:31N 34°05' E 135°00'510.6
2018-Jul-21 10:00N 34°11' E 134°59'611.4
2018-Jul-21 09:30N 34°16' E 134°58'510.2
2018-Jul-21 09:01N 34°21' E 135°00'511.0
2018-Jul-21 08:31N 34°27' E 135°01'510.5
2018-Jul-21 08:00N 34°32' E 135°02'5 8.8
2018-Jul-21 07:29N 34°36' E 135°02'6 9.2
2018-Jul-21 06:49N 34°37' E 134°55'510.5
2018-Jul-21 06:19N 34°40' E 134°50'3 0.1
2018-Jul-20 05:31N 34°43' E 134°48'0 8.6
2018-Jul-20 05:30N 34°43' E 134°48'2 0.1
2018-Jul-18 15:42N 34°40' E 134°49'312.8
2018-Jul-18 15:28N 34°38' E 134°52'814.1
2018-Jul-18 14:55N 34°37' E 135°01'513.0
2018-Jul-18 14:31N 34°33' E 135°06'1312.9
2018-Jul-18 13:30N 34°21' E 135°01'612.5
2018-Jul-18 13:00N 34°15' E 134°59'612.8
2018-Jul-18 12:30N 34°09' E 135°00'713.2
2018-Jul-18 12:00N 34°02' E 135°01'224 9.9
2018-Jul-17 13:14N 34°58' E 139°24'310.1
2018-Jul-17 12:56N 35°00' E 139°27'410.0
2018-Jul-17 12:30N 35°02' E 139°31'511.0
2018-Jul-17 12:00N 35°05' E 139°37'611.3
2018-Jul-17 11:30N 35°09' E 139°43'510.7
2018-Jul-17 11:00N 35°13' E 139°46'510.8
2018-Jul-17 10:31N 35°18' E 139°44'510.6
2018-Jul-17 10:01N 35°23' E 139°42'510.9
2018-Jul-17 09:30N 35°27' E 139°47'15 0.5
2018-Jul-16 05:17N 35°39' E 139°58'2 0.4
2018-Jul-15 22:53N 35°36' E 139°58'511.8
2018-Jul-15 22:30N 35°33' E 139°55'611.7
2018-Jul-15 22:00N 35°28' E 139°51'611.5
2018-Jul-15 21:30N 35°24' E 139°46'611.3
2018-Jul-15 21:00N 35°18' E 139°44'611.3
2018-Jul-15 20:29N 35°13' E 139°47'611.7
2018-Jul-15 20:00N 35°07' E 139°45'611.8
2018-Jul-15 19:30N 35°03' E 139°40'23910.4
2018-Jul-14 20:25N 33°50' E 135°04'511.4
2018-Jul-14 20:01N 33°54' E 135°01'612.3
2018-Jul-14 19:31N 33°60' E 134°59'612.3
2018-Jul-14 19:00N 34°06' E 134°58'612.2
2018-Jul-14 18:30N 34°12' E 134°59'713.3
2018-Jul-14 18:00N 34°19' E 134°58'612.8
2018-Jul-14 17:30N 34°25' E 135°00'612.1
2018-Jul-14 17:00N 34°31' E 135°02'510.8
2018-Jul-14 16:30N 34°36' E 135°02'611.3
2018-Jul-14 16:00N 34°37' E 134°55'  
Track history (hours):
 
Tides and Currents Weather Stations Pressure Air Temp Water Temp Dewpoint Dewpoint Depression Visibility Wind Speed Wind Dir Waves Ship Positions

Youkamaru

Last reported at 2018-Jul-22 12:30 UTC. Time now 2018-Jul-22 12:49 UTC.
Position N 35°21' E 139°45'.

Length 72 m; draft 4.8 m.

Type: Cargo ship. MMSI: 431005921.

Date/timePositionNaut miles runAvg speedWind from/ knotsBaromVisibWave heightAir tempDewpointWater temp
2018-Jul-22 12:30N 35°21' E 139°45'510.7
2018-Jul-22 12:00N 35°16' E 139°46'611.3
2018-Jul-22 11:30N 35°10' E 139°46'611.4
2018-Jul-22 11:00N 35°05' E 139°44'611.2
2018-Jul-22 10:30N 35°01' E 139°39'23810.6
2018-Jul-21 12:02N 33°50' E 135°04'210.9
2018-Jul-21 11:52N 33°51' E 135°03'410.0
2018-Jul-21 11:30N 33°55' E 135°02'510.5
2018-Jul-21 11:00N 34°00' E 135°01'510.5
2018-Jul-21 10:31N 34°05' E 135°00'510.6
2018-Jul-21 10:00N 34°11' E 134°59'611.4
2018-Jul-21 09:30N 34°16' E 134°58'510.2
2018-Jul-21 09:01N 34°21' E 135°00'511.0
2018-Jul-21 08:31N 34°27' E 135°01'510.5
2018-Jul-21 08:00N 34°32' E 135°02'5 8.8
2018-Jul-21 07:29N 34°36' E 135°02'6 9.2
2018-Jul-21 06:49N 34°37' E 134°55'510.5
2018-Jul-21 06:19N 34°40' E 134°50'3 0.1
2018-Jul-20 05:31N 34°43' E 134°48'0 8.6
2018-Jul-20 05:30N 34°43' E 134°48'2 0.1
2018-Jul-18 15:42N 34°40' E 134°49'312.8
2018-Jul-18 15:28N 34°38' E 134°52'814.1
2018-Jul-18 14:55N 34°37' E 135°01'513.0
2018-Jul-18 14:31N 34°33' E 135°06'1312.9
2018-Jul-18 13:30N 34°21' E 135°01'612.5
2018-Jul-18 13:00N 34°15' E 134°59'612.8
2018-Jul-18 12:30N 34°09' E 135°00'713.2
2018-Jul-18 12:00N 34°02' E 135°01'224 9.9
2018-Jul-17 13:14N 34°58' E 139°24'310.1
2018-Jul-17 12:56N 35°00' E 139°27'410.0
2018-Jul-17 12:30N 35°02' E 139°31'511.0
2018-Jul-17 12:00N 35°05' E 139°37'611.3
2018-Jul-17 11:30N 35°09' E 139°43'510.7
2018-Jul-17 11:00N 35°13' E 139°46'510.8
2018-Jul-17 10:31N 35°18' E 139°44'510.6
2018-Jul-17 10:01N 35°23' E 139°42'510.9
2018-Jul-17 09:30N 35°27' E 139°47'15 0.5
2018-Jul-16 05:17N 35°39' E 139°58'2 0.4
2018-Jul-15 22:53N 35°36' E 139°58'511.8
2018-Jul-15 22:30N 35°33' E 139°55'611.7
2018-Jul-15 22:00N 35°28' E 139°51'611.5
2018-Jul-15 21:30N 35°24' E 139°46'611.3
2018-Jul-15 21:00N 35°18' E 139°44'611.3
2018-Jul-15 20:29N 35°13' E 139°47'611.7
2018-Jul-15 20:00N 35°07' E 139°45'611.8
2018-Jul-15 19:30N 35°03' E 139°40'23910.4
2018-Jul-14 20:25N 33°50' E 135°04'511.4
2018-Jul-14 20:01N 33°54' E 135°01'612.3
2018-Jul-14 19:31N 33°60' E 134°59'612.3
2018-Jul-14 19:00N 34°06' E 134°58'612.2
2018-Jul-14 18:30N 34°12' E 134°59'713.3
2018-Jul-14 18:00N 34°19' E 134°58'612.8
2018-Jul-14 17:30N 34°25' E 135°00'612.1
2018-Jul-14 17:00N 34°31' E 135°02'510.8
2018-Jul-14 16:30N 34°36' E 135°02'611.3
2018-Jul-14 16:00N 34°37' E 134°55'  

Dump ship's entire track history